Time;durP1;ratioP1;P1;durP2;ratioP2;P2;SDS_P1;SDS_P2;PMS_P1;PMS_P2;Temp;Humidity;BMP_temperature;BMP_pressure;BME280_temperature;BME280_humidity;BME280_pressure;Samples;Min_cycle;Max_cycle;Signal;HPM_P1;HPM_P2
2023/08/10 00:01:28;;;;;;;4.82;2.20;;;13.70;99.90;;;;;;4991834;28;20050;-84
2023/08/10 00:03:54;;;;;;;4.07;2.13;;;13.70;99.90;;;;;;4990649;28;20050;-85
2023/08/10 00:06:20;;;;;;;5.68;2.38;;;14.40;99.90;;;;;;4974557;28;20035;-84
2023/08/10 00:08:46;;;;;;;4.53;2.25;;;13.70;99.90;;;;;;4992234;28;20046;-86
2023/08/10 00:11:12;;;;;;;4.97;1.98;;;13.70;99.90;;;;;;4988967;28;20049;-84
2023/08/10 00:13:37;;;;;;;4.25;2.20;;;13.80;99.90;;;;;;4991781;28;20416;-85
2023/08/10 00:16:03;;;;;;;8.25;2.38;;;13.80;99.90;;;;;;4991226;28;20113;-85
2023/08/10 00:18:29;;;;;;;4.57;2.22;;;13.80;99.90;;;;;;4990016;28;20054;-85
2023/08/10 00:20:54;;;;;;;4.95;2.50;;;13.80;99.90;;;;;;4987041;28;20046;-84
2023/08/10 00:23:20;;;;;;;4.20;2.40;;;13.70;99.90;;;;;;4984263;28;20046;-84
2023/08/10 00:25:46;;;;;;;4.75;2.22;;;13.70;99.90;;;;;;4991557;28;20169;-85
2023/08/10 00:28:12;;;;;;;6.28;2.47;;;13.70;99.90;;;;;;4989355;28;20416;-85
2023/08/10 00:30:38;;;;;;;4.32;2.00;;;13.70;99.90;;;;;;4991023;28;20038;-85
2023/08/10 00:33:04;;;;;;;3.58;2.10;;;13.60;99.90;;;;;;4973175;28;20385;-85
2023/08/10 00:35:30;;;;;;;6.40;2.22;;;13.60;99.90;;;;;;4990017;28;20058;-84
2023/08/10 00:37:56;;;;;;;5.43;2.45;;;13.60;99.90;;;;;;4990742;28;20050;-84
2023/08/10 00:40:22;;;;;;;4.63;2.25;;;13.50;99.90;;;;;;4990565;28;20173;-84
2023/08/10 00:42:47;;;;;;;6.72;2.60;;;13.50;99.90;;;;;;4955967;28;20584;-84
2023/08/10 00:45:13;;;;;;;5.35;2.47;;;13.50;99.90;;;;;;4985286;28;20047;-84
2023/08/10 00:47:39;;;;;;;5.78;2.50;;;13.50;99.90;;;;;;4989432;28;20485;-84
2023/08/10 00:50:06;;;;;;;5.10;2.33;;;13.50;99.90;;;;;;4990621;28;20046;-85
2023/08/10 00:52:33;;;;;;;5.35;2.58;;;13.40;99.90;;;;;;4991476;28;20867;-85
2023/08/10 00:55:00;;;;;;;4.82;2.22;;;13.40;99.90;;;;;;4992347;28;20085;-84
2023/08/10 00:57:26;;;;;;;4.43;2.67;;;13.50;99.90;;;;;;4990717;28;20420;-84
2023/08/10 00:59:52;;;;;;;4.93;2.63;;;13.40;99.90;;;;;;4989549;28;20042;-84
2023/08/10 01:02:17;;;;;;;6.28;2.50;;;13.30;99.90;;;;;;4988816;28;20077;-84
2023/08/10 01:04:43;;;;;;;6.20;2.38;;;13.40;99.90;;;;;;4989674;28;20082;-84
2023/08/10 01:07:41;;;;;;;6.70;2.38;;;13.40;99.90;;;;;;4989473;28;20050;-83
2023/08/10 01:10:19;;;;;;;5.53;2.30;;;13.40;99.90;;;;;;4980072;28;20046;-83
2023/08/10 01:12:57;;;;;;;5.03;2.38;;;13.40;99.90;;;;;;4990494;28;20057;-84
2023/08/10 01:15:46;;;;;;;6.55;2.25;;;13.40;99.90;;;;;;4988176;28;20069;-83
2023/08/10 01:18:18;;;;;;;7.47;2.60;;;13.40;99.90;;;;;;4986401;28;20053;-84
2023/08/10 01:20:47;;;;;;;4.78;2.28;;;13.40;99.90;;;;;;4989845;28;20085;-83
2023/08/10 01:23:31;;;;;;;5.75;2.92;;;13.50;99.90;;;;;;4990081;28;20051;-84
2023/08/10 01:25:57;;;;;;;4.25;2.20;;;13.40;99.90;;;;;;4979301;28;20137;-84
2023/08/10 01:28:25;;;;;;;6.65;2.70;;;13.40;99.90;;;;;;4984904;28;20459;-84
2023/08/10 01:30:51;;;;;;;4.38;2.17;;;13.40;99.90;;;;;;4989731;28;20089;-83
2023/08/10 01:33:17;;;;;;;4.68;2.30;;;13.40;99.90;;;;;;4988156;28;20049;-82
2023/08/10 01:35:42;;;;;;;3.75;2.70;;;13.40;99.90;;;;;;4989358;28;20057;-84
2023/08/10 01:38:09;;;;;;;6.35;2.38;;;13.40;99.90;;;;;;4988551;28;20050;-84
2023/08/10 01:40:34;;;;;;;5.78;2.60;;;13.30;99.90;;;;;;4989601;28;20523;-84
2023/08/10 01:43:00;;;;;;;4.18;2.10;;;13.40;99.90;;;;;;4990048;28;20077;-83
2023/08/10 01:45:25;;;;;;;5.15;2.20;;;13.30;99.90;;;;;;4989159;28;20039;-84
2023/08/10 01:47:57;;;;;;;4.70;2.13;;;13.30;99.90;;;;;;4988407;28;20173;-84
2023/08/10 01:50:26;;;;;;;4.15;1.98;;;13.20;99.90;;;;;;4989733;28;20077;-84
2023/08/10 01:52:55;;;;;;;3.53;2.30;;;13.20;99.90;;;;;;4989585;28;20497;-84
2023/08/10 01:55:21;;;;;;;2.85;2.38;;;13.10;99.90;;;;;;4988463;28;20580;-83
2023/08/10 01:57:47;;;;;;;4.80;2.10;;;13.10;99.90;;;;;;4972134;28;20075;-84
2023/08/10 02:00:13;;;;;;;5.18;2.33;;;13.10;99.90;;;;;;4973385;28;20053;-84
2023/08/10 02:02:39;;;;;;;5.20;2.53;;;13.00;99.90;;;;;;4988455;28;20042;-84
2023/08/10 02:05:05;;;;;;;5.68;2.50;;;13.00;99.90;;;;;;4989348;28;20061;-84
2023/08/10 02:07:31;;;;;;;3.13;2.17;;;13.00;99.90;;;;;;4988535;28;20703;-84
2023/08/10 02:09:57;;;;;;;6.45;2.90;;;12.90;99.90;;;;;;4988406;28;20050;-83
2023/08/10 02:12:23;;;;;;;2.45;2.25;;;13.30;99.90;;;;;;4989057;28;20433;-84
2023/08/10 02:14:49;;;;;;;5.60;2.58;;;12.90;99.90;;;;;;4989367;28;20057;-84
2023/08/10 02:17:16;;;;;;;5.75;2.20;;;12.80;99.90;;;;;;4988897;28;20484;-84
2023/08/10 02:19:41;;;;;;;2.97;2.25;;;12.80;99.90;;;;;;4988725;28;20048;-84
2023/08/10 02:22:07;;;;;;;5.53;2.70;;;12.70;99.90;;;;;;4988668;28;20400;-84
2023/08/10 02:24:33;;;;;;;5.38;2.55;;;12.70;99.90;;;;;;4988732;28;20522;-84
2023/08/10 02:26:59;;;;;;;5.85;2.60;;;12.60;99.90;;;;;;4989224;28;20047;-84
2023/08/10 02:29:26;;;;;;;4.28;2.70;;;12.60;99.90;;;;;;4988927;28;20042;-84
2023/08/10 02:31:52;;;;;;;3.72;2.38;;;12.60;99.90;;;;;;4988047;28;20402;-84
2023/08/10 02:34:17;;;;;;;5.43;2.80;;;12.50;99.90;;;;;;4988527;28;20141;-84
2023/08/10 02:36:43;;;;;;;5.55;2.50;;;12.50;99.90;;;;;;4988704;28;20038;-84
2023/08/10 02:39:09;;;;;;;4.13;2.33;;;12.50;99.90;;;;;;4986899;28;20121;-84
2023/08/10 02:41:35;;;;;;;7.05;2.60;;;12.50;99.90;;;;;;4988085;28;20054;-84
2023/08/10 02:44:00;;;;;;;4.35;2.47;;;12.50;99.90;;;;;;4987636;28;20049;-83
2023/08/10 02:46:26;;;;;;;5.55;2.78;;;12.50;99.90;;;;;;4988482;28;20078;-84
2023/08/10 02:48:53;;;;;;;4.07;2.58;;;12.60;99.90;;;;;;4988597;28;20042;-84
2023/08/10 02:51:19;;;;;;;5.95;2.75;;;12.60;99.90;;;;;;4987542;28;20086;-84
2023/08/10 02:53:45;;;;;;;5.43;3.13;;;12.60;99.90;;;;;;4987496;28;20142;-84
2023/08/10 02:56:10;;;;;;;4.80;2.72;;;13.00;99.90;;;;;;4987613;28;20447;-84
2023/08/10 02:58:36;;;;;;;4.75;2.97;;;12.70;99.90;;;;;;4988075;28;20049;-84
2023/08/10 03:01:08;;;;;;;6.57;2.67;;;12.70;99.90;;;;;;4987723;28;20149;-84
2023/08/10 03:03:34;;;;;;;4.13;2.35;;;12.70;99.90;;;;;;4987689;28;20092;-84
2023/08/10 03:06:00;;;;;;;7.13;3.05;;;12.70;99.90;;;;;;4971074;28;20480;-84
2023/08/10 03:08:26;;;;;;;4.90;2.88;;;12.70;99.90;;;;;;4985926;28;20043;-84
2023/08/10 03:10:52;;;;;;;4.93;2.85;;;12.80;99.90;;;;;;4988449;28;20042;-84
2023/08/10 03:13:17;;;;;;;8.18;2.90;;;12.80;99.90;;;;;;4989019;28;20053;-84
2023/08/10 03:15:43;;;;;;;7.47;3.17;;;12.80;99.90;;;;;;4990432;28;20140;-84
2023/08/10 03:18:09;;;;;;;6.63;2.67;;;12.90;99.90;;;;;;4989282;28;20496;-83
2023/08/10 03:20:35;;;;;;;4.25;2.63;;;12.80;99.90;;;;;;4989008;28;21185;-84
2023/08/10 03:23:02;;;;;;;6.43;2.78;;;12.90;99.90;;;;;;4969282;28;20046;-85
2023/08/10 03:25:27;;;;;;;7.22;2.88;;;12.90;99.90;;;;;;4983526;28;20030;-84
2023/08/10 03:27:53;;;;;;;5.18;2.90;;;12.90;99.90;;;;;;4983440;28;20062;-84
2023/08/10 03:30:18;;;;;;;7.47;2.83;;;13.00;99.90;;;;;;4984519;28;20049;-85
2023/08/10 03:32:44;;;;;;;5.10;2.95;;;13.10;99.90;;;;;;4993535;28;20043;-84
2023/08/10 03:35:10;;;;;;;6.78;2.80;;;13.00;99.90;;;;;;4994539;28;20125;-85
2023/08/10 03:37:36;;;;;;;8.13;3.42;;;13.00;99.90;;;;;;4995076;28;20516;-85
2023/08/10 03:40:03;;;;;;;5.20;2.85;;;13.00;99.90;;;;;;4994200;28;20055;-84
2023/08/10 03:42:29;;;;;;;8.18;2.90;;;13.00;99.90;;;;;;4990003;28;20061;-84
2023/08/10 03:44:55;;;;;;;4.38;2.80;;;13.00;99.90;;;;;;4991090;28;20046;-84
2023/08/10 03:47:21;;;;;;;4.70;2.70;;;13.00;99.90;;;;;;4991993;28;20089;-84
2023/08/10 03:49:48;;;;;;;6.10;2.85;;;13.10;99.90;;;;;;4990527;28;20137;-84
2023/08/10 03:52:13;;;;;;;5.85;2.42;;;13.10;99.90;;;;;;4983839;28;20038;-84
2023/08/10 03:54:39;;;;;;;3.58;2.78;;;13.10;99.90;;;;;;4990068;28;20158;-85
2023/08/10 03:57:05;;;;;;;4.45;3.10;;;13.10;99.90;;;;;;4991093;28;20046;-84
2023/08/10 03:59:30;;;;;;;4.40;2.90;;;13.10;99.90;;;;;;5002099;28;20035;-85
2023/08/10 04:01:56;;;;;;;5.00;3.00;;;13.20;99.90;;;;;;4997052;28;20038;-84
2023/08/10 04:04:21;;;;;;;5.93;3.05;;;13.20;99.90;;;;;;4992283;28;20085;-85
2023/08/10 04:06:47;;;;;;;6.95;3.13;;;13.20;99.90;;;;;;4991088;28;20061;-84
2023/08/10 04:09:12;;;;;;;5.22;2.72;;;13.20;99.90;;;;;;4991963;28;20563;-85
2023/08/10 04:11:38;;;;;;;6.25;3.40;;;13.50;99.90;;;;;;4990990;28;20420;-84
2023/08/10 04:14:04;;;;;;;4.68;3.00;;;13.20;99.90;;;;;;4991228;28;20042;-84
2023/08/10 04:16:29;;;;;;;4.35;2.67;;;13.30;99.90;;;;;;4991012;28;20094;-84
2023/08/10 04:18:55;;;;;;;6.65;3.05;;;13.30;99.90;;;;;;4988501;28;20054;-84
2023/08/10 04:21:21;;;;;;;5.47;3.45;;;13.30;99.90;;;;;;4977153;28;20115;-84
2023/08/10 04:23:47;;;;;;;10.02;3.75;;;13.30;99.90;;;;;;4990338;28;20050;-85
2023/08/10 04:26:12;;;;;;;7.55;2.95;;;13.30;99.90;;;;;;4989291;28;20726;-84
2023/08/10 04:28:38;;;;;;;5.28;3.20;;;13.30;99.90;;;;;;4988059;28;20140;-84
2023/08/10 04:31:03;;;;;;;8.48;3.60;;;13.30;99.90;;;;;;4989875;28;20662;-85
2023/08/10 04:33:31;;;;;;;9.52;3.35;;;13.30;99.90;;;;;;4989944;28;20141;-84
2023/08/10 04:35:57;;;;;;;5.65;2.92;;;13.40;99.90;;;;;;4989820;28;20617;-84
2023/08/10 04:38:23;;;;;;;4.22;3.25;;;13.40;99.90;;;;;;4989147;28;20050;-84
2023/08/10 04:40:48;;;;;;;4.00;3.10;;;13.30;99.90;;;;;;4989877;28;20518;-84
2023/08/10 04:43:14;;;;;;;10.63;3.60;;;13.40;99.90;;;;;;4987315;28;20057;-85
2023/08/10 04:45:41;;;;;;;5.00;3.10;;;13.40;99.90;;;;;;4988398;28;20598;-84
2023/08/10 04:48:07;;;;;;;4.97;3.17;;;13.50;99.90;;;;;;4987514;28;20727;-84
2023/08/10 04:50:32;;;;;;;5.32;3.33;;;13.50;99.90;;;;;;4989335;28;20042;-83
2023/08/10 04:52:58;;;;;;;6.05;3.88;;;13.60;99.90;;;;;;4990950;28;20034;-85
2023/08/10 04:55:25;;;;;;;6.70;3.50;;;13.60;99.90;;;;;;4988690;28;20109;-84
2023/08/10 04:57:52;;;;;;;4.40;3.65;;;13.60;99.90;;;;;;4975508;28;20046;-84
2023/08/10 05:00:18;;;;;;;5.97;3.67;;;13.60;99.90;;;;;;4977005;28;20054;-84
2023/08/10 05:02:43;;;;;;;6.65;3.65;;;13.60;99.90;;;;;;4988504;28;20050;-84
2023/08/10 05:05:11;;;;;;;5.55;3.55;;;13.70;99.90;;;;;;4988694;28;20053;-84
2023/08/10 05:07:37;;;;;;;5.55;3.47;;;13.80;99.90;;;;;;4988474;28;20497;-84
2023/08/10 05:10:06;;;;;;;7.22;3.92;;;13.80;99.90;;;;;;4989328;28;20034;-84
2023/08/10 05:12:32;;;;;;;5.35;3.42;;;13.90;99.90;;;;;;4985829;28;20046;-84
2023/08/10 05:14:57;;;;;;;4.97;3.50;;;14.00;99.90;;;;;;4984998;28;20260;-85
2023/08/10 05:17:23;;;;;;;7.32;3.88;;;14.10;99.90;;;;;;4983649;28;20524;-85
2023/08/10 05:19:49;;;;;;;7.32;3.58;;;14.20;99.90;;;;;;4989039;28;20520;-85
2023/08/10 05:22:14;;;;;;;5.55;3.55;;;14.20;99.90;;;;;;4989820;28;20049;-85
2023/08/10 05:24:40;;;;;;;4.40;3.13;;;14.20;99.90;;;;;;4989402;28;20042;-85
2023/08/10 05:27:06;;;;;;;6.38;3.58;;;14.30;99.90;;;;;;4972048;28;20043;-85
2023/08/10 05:29:31;;;;;;;7.13;3.85;;;14.30;99.90;;;;;;4972776;28;20058;-85
2023/08/10 05:31:57;;;;;;;4.40;3.33;;;14.30;99.90;;;;;;4978841;28;20043;-85
2023/08/10 05:34:23;;;;;;;6.55;3.83;;;14.40;99.90;;;;;;4985191;28;20378;-85
2023/08/10 05:36:48;;;;;;;6.15;3.63;;;14.40;99.90;;;;;;4987991;28;20058;-85
2023/08/10 05:39:14;;;;;;;5.88;3.50;;;14.40;99.90;;;;;;4970156;28;20129;-84
2023/08/10 05:41:40;;;;;;;6.10;3.80;;;14.40;99.90;;;;;;4969147;28;20046;-85
2023/08/10 05:44:05;;;;;;;7.95;3.53;;;14.50;99.90;;;;;;4968906;28;20073;-85
2023/08/10 05:46:31;;;;;;;5.30;3.47;;;14.60;99.90;;;;;;4972577;28;20039;-85
2023/08/10 05:48:57;;;;;;;7.93;3.85;;;14.60;99.90;;;;;;4987853;28;20117;-85
2023/08/10 05:51:23;;;;;;;4.82;3.47;;;14.70;99.90;;;;;;4981401;28;20114;-85
2023/08/10 05:53:48;;;;;;;5.75;4.20;;;15.10;99.90;;;;;;4969529;28;20493;-85
2023/08/10 05:56:14;;;;;;;7.30;3.42;;;14.90;99.90;;;;;;4972666;28;20070;-85
2023/08/10 05:58:40;;;;;;;5.72;3.60;;;15.00;99.90;;;;;;4987998;28;20632;-85
2023/08/10 06:01:05;;;;;;;5.85;3.67;;;15.20;99.90;;;;;;4988812;28;20042;-84
2023/08/10 06:03:31;;;;;;;6.75;3.60;;;15.30;99.90;;;;;;4981611;28;20471;-84
2023/08/10 06:06:00;;;;;;;7.30;4.00;;;15.40;99.90;;;;;;4969133;28;20059;-85
2023/08/10 06:08:26;;;;;;;6.90;3.95;;;15.90;99.90;;;;;;4970212;28;20054;-83
2023/08/10 06:10:51;;;;;;;5.60;2.97;;;17.00;99.90;;;;;;4968103;28;20534;-85
2023/08/10 06:13:20;;;;;;;6.15;2.78;;;18.30;99.90;;;;;;4971016;28;20074;-82
2023/08/10 06:15:46;;;;;;;6.28;3.08;;;19.40;99.90;;;;;;4975743;28;20038;-84
2023/08/10 06:18:13;;;;;;;5.22;2.70;;;20.20;99.90;;;;;;4982938;28;20230;-84
2023/08/10 06:20:39;;;;;;;7.13;2.60;;;20.20;99.90;;;;;;4969206;28;20076;-83
2023/08/10 06:23:05;;;;;;;5.75;2.30;;;19.80;99.90;;;;;;4968861;28;20057;-84
2023/08/10 06:25:31;;;;;;;5.93;2.97;;;19.30;99.90;;;;;;4968473;28;20059;-83
2023/08/10 06:28:00;;;;;;;3.38;2.55;;;18.80;99.90;;;;;;4984428;28;20058;-83
2023/08/10 06:30:25;;;;;;;3.85;2.38;;;18.70;99.90;;;;;;4976159;28;20532;-83
2023/08/10 06:32:51;;;;;;;4.00;2.30;;;18.30;99.90;;;;;;4986963;28;21198;-83
2023/08/10 06:35:21;;;;;;;7.57;2.35;;;18.20;99.90;;;;;;4976551;28;20357;-84
2023/08/10 06:37:48;;;;;;;5.45;2.65;;;18.10;99.90;;;;;;4968297;28;20494;-83
2023/08/10 06:40:15;;;;;;;5.68;2.05;;;18.20;99.90;;;;;;4968642;28;20051;-83
2023/08/10 06:42:41;;;;;;;8.00;2.58;;;18.20;99.90;;;;;;4983504;28;20500;-84
2023/08/10 06:45:08;;;;;;;4.38;1.83;;;18.50;99.90;;;;;;4989093;28;20062;-85
2023/08/10 06:47:34;;;;;;;6.40;2.10;;;18.30;99.90;;;;;;4982832;28;20497;-84
2023/08/10 06:49:59;;;;;;;4.88;1.35;;;18.30;99.90;;;;;;4971327;28;20520;-84
2023/08/10 06:52:25;;;;;;;4.30;1.45;;;18.30;99.90;;;;;;4984924;28;20058;-82
2023/08/10 06:54:54;;;;;;;7.13;1.60;;;18.30;99.90;;;;;;4967938;28;20058;-83
2023/08/10 06:57:20;;;;;;;6.50;1.55;;;18.40;99.90;;;;;;4968425;28;20056;-83
2023/08/10 06:59:46;;;;;;;5.55;1.50;;;18.50;99.90;;;;;;4968438;28;20808;-84
2023/08/10 07:02:13;;;;;;;2.38;1.33;;;18.40;99.90;;;;;;4967446;28;20053;-84
2023/08/10 07:04:39;;;;;;;4.70;1.40;;;18.30;99.90;;;;;;4971310;28;20045;-84
2023/08/10 07:07:05;;;;;;;5.47;1.50;;;18.30;99.90;;;;;;4980360;28;20043;-84
2023/08/10 07:09:31;;;;;;;5.22;1.60;;;18.10;99.90;;;;;;4969042;28;20755;-84
2023/08/10 07:11:56;;;;;;;4.35;1.40;;;18.20;99.90;;;;;;4969111;28;20059;-85
2023/08/10 07:14:22;;;;;;;3.85;1.45;;;18.30;99.90;;;;;;4968539;28;20125;-84
2023/08/10 07:16:48;;;;;;;3.92;1.35;;;18.20;99.90;;;;;;4967431;28;20444;-84
2023/08/10 07:19:13;;;;;;;6.32;1.80;;;18.20;99.90;;;;;;4970133;28;20101;-84
2023/08/10 07:21:39;;;;;;;3.90;1.40;;;18.30;99.90;;;;;;4970536;28;20544;-84
2023/08/10 07:24:05;;;;;;;7.43;1.33;;;18.50;99.90;;;;;;4971962;28;20062;-84
2023/08/10 07:26:31;;;;;;;6.13;1.50;;;18.40;99.90;;;;;;4972616;28;20074;-84
2023/08/10 07:28:57;;;;;;;4.93;1.30;;;18.50;99.90;;;;;;4972729;28;20810;-85
2023/08/10 07:31:28;;;;;;;3.45;1.10;;;18.60;99.90;;;;;;4970392;28;20047;-85
2023/08/10 07:33:54;;;;;;;2.83;0.95;;;18.80;99.90;;;;;;4972332;28;20053;-84
2023/08/10 07:36:20;;;;;;;5.57;1.35;;;19.10;99.90;;;;;;4971669;28;20058;-84
2023/08/10 07:38:45;;;;;;;2.75;1.10;;;18.60;99.90;;;;;;4971368;28;20086;-84
2023/08/10 07:41:11;;;;;;;6.38;1.42;;;19.00;99.90;;;;;;4979425;28;20133;-83
2023/08/10 07:43:36;;;;;;;3.92;1.20;;;19.10;99.90;;;;;;4972774;28;20058;-83
2023/08/10 07:46:02;;;;;;;3.95;1.38;;;19.20;99.90;;;;;;4972135;28;20031;-83
2023/08/10 07:48:28;;;;;;;3.35;1.15;;;19.50;99.90;;;;;;4972216;28;20047;-82
2023/08/10 07:50:54;;;;;;;4.50;1.20;;;19.60;99.90;;;;;;4985455;28;20045;-81
2023/08/10 07:53:20;;;;;;;2.28;1.00;;;19.60;99.90;;;;;;4986734;28;20548;-82
2023/08/10 07:55:46;;;;;;;3.72;1.20;;;19.50;99.90;;;;;;4981115;28;20054;-82
2023/08/10 07:58:14;;;;;;;3.65;1.48;;;19.40;99.90;;;;;;4977182;28;20038;-82
2023/08/10 08:00:41;;;;;;;4.55;1.50;;;19.30;99.90;;;;;;4986930;28;20052;-83
2023/08/10 08:03:08;;;;;;;6.38;1.30;;;19.30;99.90;;;;;;4989793;28;20049;-83
2023/08/10 08:05:37;;;;;;;3.67;1.45;;;19.40;99.90;;;;;;4976558;28;20046;-82
2023/08/10 08:08:06;;;;;;;2.10;1.25;;;19.50;99.90;;;;;;4970098;28;20055;-83
2023/08/10 08:10:33;;;;;;;2.75;1.20;;;19.50;99.90;;;;;;4969568;28;20501;-83
2023/08/10 08:12:59;;;;;;;3.00;0.93;;;19.50;99.90;;;;;;4975662;28;20082;-83
2023/08/10 08:15:25;;;;;;;2.80;1.10;;;19.50;99.90;;;;;;4990332;28;20132;-82
2023/08/10 08:18:28;;;;;;;2.60;1.17;;;19.50;99.90;;;;;;4988983;28;20049;-83
2023/08/10 08:20:54;;;;;;;3.92;1.48;;;19.40;99.90;;;;;;4990749;28;20038;-83
2023/08/10 08:23:19;;;;;;;4.55;1.50;;;19.30;99.90;;;;;;4986870;28;20073;-83
2023/08/10 08:25:45;;;;;;;5.53;1.30;;;19.20;99.90;;;;;;4990343;28;20043;-82
2023/08/10 08:28:10;;;;;;;5.40;1.17;;;19.30;99.90;;;;;;4988739;28;20061;-82
2023/08/10 08:30:36;;;;;;;3.85;1.15;;;19.20;99.90;;;;;;4989267;28;20046;-82
2023/08/10 08:33:02;;;;;;;8.93;1.55;;;19.10;99.90;;;;;;4989931;28;20042;-82
2023/08/10 08:35:27;;;;;;;10.60;1.73;;;19.10;99.90;;;;;;4989636;28;20049;-82
2023/08/10 08:37:53;;;;;;;4.05;1.60;;;19.10;99.90;;;;;;4990273;28;20073;-82
2023/08/10 08:40:20;;;;;;;4.20;1.58;;;19.10;99.90;;;;;;4989142;28;20051;-82
2023/08/10 08:42:48;;;;;;;6.15;1.20;;;19.00;99.90;;;;;;4982677;28;20070;-83
2023/08/10 08:45:15;;;;;;;3.10;1.20;;;19.00;99.90;;;;;;4985599;28;20038;-83
2023/08/10 08:47:42;;;;;;;3.08;1.17;;;18.90;99.90;;;;;;4990125;28;20377;-82
2023/08/10 08:50:08;;;;;;;2.78;1.13;;;18.80;99.90;;;;;;4990002;28;20499;-83
2023/08/10 08:52:34;;;;;;;2.97;0.88;;;18.80;99.90;;;;;;4989942;28;20115;-83
2023/08/10 08:55:02;;;;;;;3.20;1.33;;;18.80;99.90;;;;;;4988413;28;20050;-82
2023/08/10 08:57:28;;;;;;;3.35;1.30;;;18.70;99.90;;;;;;4988360;28;20415;-82
2023/08/10 08:59:53;;;;;;;3.10;1.30;;;18.70;99.90;;;;;;4987584;28;20050;-82
2023/08/10 09:02:19;;;;;;;4.60;1.02;;;18.70;99.90;;;;;;4989589;28;20085;-82
2023/08/10 09:04:44;;;;;;;3.47;1.00;;;18.70;99.90;;;;;;4988512;28;20121;-83
2023/08/10 09:07:11;;;;;;;2.63;1.10;;;18.50;99.90;;;;;;4972140;28;20437;-83
2023/08/10 09:09:38;;;;;;;2.90;1.10;;;18.70;99.90;;;;;;4989379;28;20065;-83
2023/08/10 09:12:33;;;;;;;4.35;1.08;;;18.60;99.90;;;;;;4971400;28;20122;-83
2023/08/10 09:15:05;;;;;;;3.72;1.27;;;18.60;99.90;;;;;;4988941;28;20098;-82
2023/08/10 09:17:36;;;;;;;3.08;0.90;;;18.50;99.90;;;;;;4989675;28;20086;-83
2023/08/10 09:20:05;;;;;;;3.83;1.30;;;18.70;99.90;;;;;;4986105;28;20046;-82
2023/08/10 09:22:33;;;;;;;3.47;1.17;;;18.60;99.90;;;;;;4988121;28;20121;-83
2023/08/10 09:25:00;;;;;;;2.72;1.02;;;18.60;99.90;;;;;;4988835;28;20615;-81
2023/08/10 09:27:27;;;;;;;3.55;1.20;;;18.60;99.90;;;;;;4988838;28;20396;-83
2023/08/10 09:30:00;;;;;;;1.98;1.00;;;18.60;99.90;;;;;;4989134;28;20053;-82
2023/08/10 09:32:26;;;;;;;3.28;1.10;;;18.50;99.90;;;;;;4989105;28;20590;-83
2023/08/10 09:34:52;;;;;;;4.57;1.20;;;18.50;99.90;;;;;;4988700;28;20146;-83
2023/08/10 09:37:19;;;;;;;3.00;1.10;;;18.40;99.90;;;;;;4986501;28;20180;-82
2023/08/10 09:39:45;;;;;;;3.58;1.10;;;18.40;99.90;;;;;;4988099;28;20070;-83
2023/08/10 09:42:10;;;;;;;2.25;1.25;;;18.80;99.90;;;;;;4973865;28;20046;-82
2023/08/10 09:44:50;;;;;;;5.45;1.40;;;18.40;99.90;;;;;;4969650;28;20398;-83
2023/08/10 09:47:17;;;;;;;4.25;1.65;;;18.40;99.90;;;;;;4969256;28;20039;-82
2023/08/10 09:49:56;;;;;;;3.90;1.52;;;18.60;99.90;;;;;;4982813;28;20075;-82
2023/08/10 09:52:23;;;;;;;2.53;1.80;;;18.40;99.90;;;;;;4987213;28;20061;-82
2023/08/10 09:54:50;;;;;;;4.85;1.60;;;18.40;99.90;;;;;;4981715;28;20058;-82
2023/08/10 09:57:18;;;;;;;7.15;1.65;;;18.50;99.90;;;;;;4969605;28;20050;-82
2023/08/10 09:59:45;;;;;;;5.22;1.50;;;18.50;99.90;;;;;;4969348;28;20468;-82
2023/08/10 10:02:11;;;;;;;10.68;1.40;;;18.60;99.90;;;;;;4968843;28;20043;-82
2023/08/10 10:04:38;;;;;;;5.22;1.27;;;18.70;99.90;;;;;;4969222;28;20101;-82
2023/08/10 10:07:06;;;;;;;4.00;1.23;;;18.60;99.90;;;;;;4982384;28;20042;-83
2023/08/10 10:09:37;;;;;;;5.30;1.38;;;18.60;99.90;;;;;;4981801;28;20092;-83
2023/08/10 10:12:10;;;;;;;4.75;1.60;;;18.60;99.90;;;;;;4976258;28;20134;-83
2023/08/10 10:14:41;;;;;;;2.30;1.40;;;18.50;99.90;;;;;;4977406;28;20041;-84
2023/08/10 10:17:12;;;;;;;6.18;1.42;;;18.60;99.90;;;;;;4968784;28;20050;-83
2023/08/10 10:19:41;;;;;;;4.95;1.70;;;18.50;99.90;;;;;;4969142;28;20038;-83
2023/08/10 10:22:08;;;;;;;5.35;1.70;;;18.60;99.90;;;;;;4980870;28;20412;-83
2023/08/10 10:24:38;;;;;;;2.85;1.60;;;18.60;99.90;;;;;;4984318;28;20042;-83
2023/08/10 10:27:08;;;;;;;4.88;1.80;;;18.50;99.90;;;;;;4982662;28;20053;-82
2023/08/10 10:29:49;;;;;;;4.70;1.45;;;18.60;99.90;;;;;;4970001;28;20053;-82
2023/08/10 10:32:18;;;;;;;5.35;1.92;;;18.60;99.90;;;;;;4977736;28;20093;-82
2023/08/10 10:34:44;;;;;;;4.47;1.77;;;18.60;99.90;;;;;;4968959;28;20050;-82
2023/08/10 10:37:17;;;;;;;3.30;1.83;;;18.60;99.90;;;;;;4968877;28;20055;-81
2023/08/10 10:39:47;;;;;;;3.53;1.80;;;18.50;99.90;;;;;;4971310;28;20046;-82
2023/08/10 10:42:16;;;;;;;4.68;1.55;;;18.60;99.90;;;;;;4972328;28;20085;-83
2023/08/10 10:45:14;;;;;;;4.45;1.88;;;18.60;99.90;;;;;;4967988;28;20062;-83
2023/08/10 10:47:49;;;;;;;3.85;1.60;;;18.60;99.90;;;;;;4976913;28;20054;-84
2023/08/10 10:50:16;;;;;;;3.33;1.80;;;18.60;99.90;;;;;;4968525;28;20126;-83
2023/08/10 10:52:53;;;;;;;5.00;1.75;;;18.70;99.90;;;;;;4968502;28;20541;-82
2023/08/10 10:55:19;;;;;;;4.15;1.60;;;18.80;99.90;;;;;;4991738;28;20072;-82
2023/08/10 10:57:47;;;;;;;6.50;1.95;;;18.80;99.90;;;;;;4995350;28;20124;-83
2023/08/10 11:00:13;;;;;;;5.70;2.05;;;18.80;99.90;;;;;;4995408;28;20053;-84
2023/08/10 11:02:39;;;;;;;8.15;2.30;;;18.80;99.90;;;;;;4995486;28;20081;-83
2023/08/10 11:05:16;;;;;;;4.18;1.90;;;18.90;99.90;;;;;;4991126;28;20084;-83
2023/08/10 11:07:44;;;;;;;4.63;1.63;;;18.90;99.90;;;;;;5000355;28;20527;-83
2023/08/10 11:10:10;;;;;;;4.95;2.42;;;18.90;99.90;;;;;;4974989;28;20436;-83
2023/08/10 11:12:41;;;;;;;2.97;1.83;;;19.00;99.90;;;;;;4985196;28;20068;-83
2023/08/10 11:15:09;;;;;;;4.90;2.13;;;18.90;99.90;;;;;;4990551;28;20069;-83
2023/08/10 11:17:38;;;;;;;4.88;1.83;;;18.90;99.90;;;;;;4995469;28;20064;-83
2023/08/10 11:20:20;;;;;;;4.93;1.90;;;19.30;99.90;;;;;;4993464;28;20432;-84
2023/08/10 11:22:49;;;;;;;;;;;19.00;99.90;;;;;;4995075;28;20046;-83
2023/08/10 11:25:29;;;;;;;3.38;1.88;;;19.00;99.90;;;;;;4994533;28;19929;-84
2023/08/10 11:27:56;;;;;;;5.22;2.15;;;19.20;99.90;;;;;;4991910;28;20149;-84
2023/08/10 11:30:23;;;;;;;2.65;1.67;;;19.40;99.90;;;;;;4983052;28;20049;-83
2023/08/10 11:32:51;;;;;;;2.70;1.80;;;19.40;99.90;;;;;;4985134;28;20046;-83
2023/08/10 11:35:19;;;;;;;4.70;1.77;;;19.60;99.90;;;;;;4993215;28;20042;-83
2023/08/10 11:37:45;;;;;;;3.00;1.73;;;19.50;99.90;;;;;;4980639;28;20125;-84
2023/08/10 11:40:18;;;;;;;3.20;1.75;;;20.00;99.90;;;;;;4987480;28;20468;-82
2023/08/10 11:42:49;;;;;;;4.40;2.05;;;19.80;99.90;;;;;;4985945;28;20046;-83
2023/08/10 11:45:18;;;;;;;4.57;1.90;;;19.80;99.90;;;;;;4975870;28;20090;-83
2023/08/10 11:47:58;;;;;;;5.00;2.20;;;19.80;99.90;;;;;;4975948;28;20130;-83
2023/08/10 11:50:26;;;;;;;5.20;1.98;;;19.90;99.90;;;;;;4972766;28;20485;-83
2023/08/10 11:52:53;;;;;;;4.80;1.92;;;20.00;99.90;;;;;;4974162;28;20041;-84
2023/08/10 11:55:20;;;;;;;5.80;1.80;;;20.20;99.90;;;;;;4972693;28;20047;-83
2023/08/10 11:57:50;;;;;;;5.18;2.05;;;20.50;99.90;;;;;;4988892;28;20058;-84
2023/08/10 12:00:30;;;;;;;6.32;2.05;;;20.50;99.90;;;;;;4974043;28;20351;-83
2023/08/10 12:03:01;;;;;;;4.13;2.13;;;20.60;99.90;;;;;;4975094;28;20051;-83
2023/08/10 12:05:35;;;;;;;6.55;2.20;;;20.70;99.90;;;;;;4971844;28;20046;-83
2023/08/10 12:08:02;;;;;;;3.72;2.03;;;20.80;99.90;;;;;;4971375;28;20055;-83
2023/08/10 12:10:34;;;;;;;5.03;2.08;;;20.90;99.90;;;;;;4971073;28;20047;-84
2023/08/10 12:13:03;;;;;;;;;;;20.90;99.90;;;;;;4971748;28;20047;-83
2023/08/10 12:15:33;;;;;;;5.03;2.00;;;21.00;99.90;;;;;;4971313;28;19926;-83
2023/08/10 12:18:00;;;;;;;3.78;2.05;;;21.10;99.90;;;;;;4971180;28;20047;-83
2023/08/10 12:20:26;;;;;;;5.13;2.30;;;21.10;99.90;;;;;;4971340;28;20046;-83
2023/08/10 12:22:53;;;;;;;5.15;1.95;;;21.20;99.90;;;;;;4972662;28;20113;-83
2023/08/10 12:25:21;;;;;;;5.05;2.38;;;21.30;99.90;;;;;;4972003;28;20117;-83
2023/08/10 12:27:47;;;;;;;3.92;2.13;;;21.40;99.90;;;;;;4971354;28;20062;-83
2023/08/10 12:30:14;;;;;;;5.68;2.10;;;21.50;99.90;;;;;;4970980;28;20089;-83
2023/08/10 12:32:39;;;;;;;4.13;2.30;;;21.60;99.90;;;;;;4971590;28;20047;-83
2023/08/10 12:35:05;;;;;;;4.60;2.35;;;21.60;99.90;;;;;;4970153;28;20046;-83
2023/08/10 12:37:31;;;;;;;3.47;2.53;;;21.60;99.90;;;;;;4971836;28;20101;-83
2023/08/10 12:39:56;;;;;;;3.50;2.25;;;21.60;99.90;;;;;;4971249;28;20050;-83
2023/08/10 12:42:24;;;;;;;5.13;2.22;;;21.80;99.90;;;;;;4971751;28;20365;-83
2023/08/10 12:44:50;;;;;;;4.82;2.50;;;21.60;99.90;;;;;;4971577;28;20125;-82
2023/08/10 12:47:16;;;;;;;8.07;2.88;;;21.60;99.90;;;;;;4970935;28;20082;-84
2023/08/10 12:49:42;;;;;;;5.70;2.67;;;21.50;99.90;;;;;;4971385;28;20074;-84